Home   Weather   Italy   Milan   Past weeks
Flag for Italy

Past Weather in Milan, Italy — Yesterday and Last 2 Weeks

Currently: 61 °F. Clear. (Weather station: Milan / Linate, Italy). See more current weather

Past Weather in Milan — Graph

°F

Milan Temperature Yesterday

Maximum temperature yesterday: 77 °F (at 4:20 pm)
Minimum temperature yesterday: 52 °F (at 5:50 am)
Average temperature yesterday: 66 °F

High & Low Weather Summary for the Past Weeks

 TemperatureHumidityPressure
High81 °F (Sep 19, 5:20 pm)100% (Sep 24, 9:20 pm)30.18 "Hg (Sep 24, 9:20 pm)
Low50 °F (Sep 20, 7:20 am)12% (Sep 19, 4:20 pm)29.45 "Hg (Sep 29, 4:20 pm)
Average63 °F66%29.88 "Hg
* Reported Sep 18 2:50 am — Oct 3 2:50 am, Milan. Weather by CustomWeather, © 2022

Note: Actual official high and low records may vary slightly from our data, if they occured in-between our weather recording intervals... More about our weather records

Milan Weather History for the Previous 24 Hours

Scroll right to see more
 ConditionsComfort  
Time TempWeatherWind HumidityBarometerVisibility
2:50 am
Mon, Oct 3
61 °FClear.6 mph88%30.04 "Hg10 mi
1:20 am61 °FClear.2 mph88%30.04 "Hg10 mi
12:50 am63 °FClear.2 mph83%30.04 "Hg10 mi
12:20 am63 °FClear.2 mph83%30.04 "Hg10 mi
11:50 pm
Sun, Oct 2
64 °FPassing clouds.5 mph83%30.04 "HgN/A
11:20 pm64 °FClear.5 mph83%30.04 "Hg10 mi
10:50 pm66 °FClear.6 mph78%30.04 "Hg10 mi
10:20 pm66 °FPassing clouds.7 mph78%30.04 "HgN/A
9:50 pm68 °FPassing clouds.7 mph73%30.04 "HgN/A
9:20 pm68 °FClear.7 mph73%30.04 "Hg10 mi
8:50 pm70 °FPassing clouds.6 mph69%30.01 "HgN/A
8:20 pm70 °FPassing clouds.6 mph69%30.01 "HgN/A
7:50 pm68 °FClear.1 mph78%30.01 "Hg10 mi
7:20 pm72 °FClear.2 mph65%30.01 "Hg10 mi
6:50 pm73 °FPassing clouds.6 mph61%30.01 "HgN/A
6:20 pm75 °FPassing clouds.5 mph57%30.01 "HgN/A
5:50 pm75 °FPassing clouds.6 mph57%30.01 "HgN/A
5:20 pm77 °FPassing clouds.6 mph54%30.04 "HgN/A
4:50 pm75 °FPassing clouds.6 mph54%30.04 "HgN/A
4:20 pm77 °FPassing clouds.6 mph54%30.04 "HgN/A
3:50 pm75 °FPassing clouds.6 mph54%30.07 "HgN/A
3:20 pm75 °FPassing clouds.6 mph54%30.07 "HgN/A
2:50 pm75 °FPassing clouds.5 mph50%30.07 "HgN/A
2:20 pm73 °FPassing clouds.5 mph57%30.09 "HgN/A
1:50 pm73 °FPassing clouds.5 mph53%30.09 "HgN/A
1:20 pm72 °FSunny.2 mph57%30.12 "Hg10 mi
12:50 pm70 °FSunny.2 mph60%30.12 "Hg10 mi
12:20 pm70 °FSunny.3 mph60%30.12 "Hg10 mi
11:50 am68 °FPassing clouds.3 mph64%30.15 "HgN/A
11:20 am66 °FSunny.2 mph68%30.12 "Hg10 mi
10:50 am64 °FPassing clouds.3 mph68%30.15 "HgN/A
10:20 am63 °FPassing clouds.2 mph77%30.15 "HgN/A
9:20 am59 °FPassing clouds.6 mph82%30.15 "HgN/A
8:50 am57 °FPassing clouds.1 mph88%30.12 "HgN/A
8:20 am52 °FPassing clouds.1 mph100%30.12 "HgN/A
7:50 am52 °FPassing clouds.1 mph94%30.12 "HgN/A
7:20 am52 °FPassing clouds.1 mph100%30.09 "HgN/A
6:50 am54 °FClear.2 mph94%30.09 "Hg10 mi
6:20 am52 °FClear.1 mph94%30.09 "Hg10 mi
5:50 am52 °FClear.2 mph100%30.09 "Hg10 mi
4:50 am54 °FClear.2 mph94%30.07 "Hg10 mi
4:20 am57 °FPassing clouds.5 mph82%30.07 "HgN/A
Weather by CustomWeather, © 2022

See weather overview